Time;durP1;ratioP1;P1;durP2;ratioP2;P2;SDS_P1;SDS_P2;PMS_P1;PMS_P2;Temp;Humidity;BMP_temperature;BMP_pressure;BME280_temperature;BME280_humidity;BME280_pressure;Samples;Min_cycle;Max_cycle;Signal;HPM_P1;HPM_P2
2022/03/19 00:00:03;;;;;;;8.15;5.28;;;;;;;6.25;65.58;104299.81;4880733;29;20080;-94
2022/03/19 00:02:31;;;;;;;12.15;6.25;;;;;;;6.20;67.41;104304.75;4887466;29;20036;-92
2022/03/19 00:04:56;;;;;;;11.43;6.30;;;;;;;6.17;67.44;104311.50;4902267;29;20020;-92
2022/03/19 00:07:22;;;;;;;10.93;6.28;;;;;;;6.14;67.84;104313.91;4902931;29;20032;-93
2022/03/19 00:09:47;;;;;;;9.82;5.93;;;;;;;6.13;67.39;104312.16;4886276;29;20346;-91
2022/03/19 00:12:14;;;;;;;10.40;6.30;;;;;;;6.11;67.61;104313.75;4879607;29;20110;-92
2022/03/19 00:14:40;;;;;;;10.32;6.55;;;;;;;6.11;67.51;104311.19;4899975;29;20779;-91
2022/03/19 00:17:05;;;;;;;10.50;6.57;;;;;;;6.10;67.84;104307.72;4900694;29;20084;-92
2022/03/19 00:19:31;;;;;;;11.70;6.78;;;;;;;6.07;67.99;104308.44;4886992;29;20025;-93
2022/03/19 00:21:57;;;;;;;12.18;6.85;;;;;;;6.05;67.71;104309.19;4871913;29;20042;-90
2022/03/19 00:24:22;;;;;;;12.27;7.00;;;;;;;6.03;68.14;104305.63;4882378;29;20036;-91
2022/03/19 00:26:47;;;;;;;15.15;7.47;;;;;;;6.01;68.27;104308.16;4881607;29;20056;-92
2022/03/19 00:29:13;;;;;;;11.70;7.57;;;;;;;6.00;68.12;104305.47;4879010;29;20034;-93
2022/03/19 00:31:38;;;;;;;10.48;7.05;;;;;;;5.99;68.34;104298.50;4877452;29;20020;-94
2022/03/19 00:34:09;;;;;;;12.85;7.88;;;;;;;5.97;68.42;104294.97;4882717;29;20048;-94
2022/03/19 00:36:36;;;;;;;15.18;7.03;;;;;;;5.95;68.20;104288.84;4884605;29;20072;-95
2022/03/19 00:39:02;;;;;;;13.57;7.47;;;;;;;5.95;68.25;104291.44;4882747;29;20384;-95
2022/03/19 00:41:34;;;;;;;11.57;8.25;;;;;;;5.92;68.59;104293.03;4884808;29;20032;-93
2022/03/19 00:44:24;;;;;;;13.55;7.78;;;;;;;5.92;67.49;104298.22;4879031;29;20028;-95
2022/03/19 00:46:50;;;;;;;12.05;7.40;;;;;;;5.89;68.64;104297.19;4879429;29;20028;-92
2022/03/19 00:49:23;;;;;;;14.50;8.02;;;;;;;5.88;68.04;104296.28;4881972;29;20035;-92
2022/03/19 00:51:48;;;;;;;13.13;8.50;;;;;;;5.85;68.63;104296.13;4875097;29;20556;-90
2022/03/19 00:54:15;;;;;;;16.10;8.23;;;;;;;5.82;69.16;104288.22;4875901;29;20037;-90
2022/03/19 00:56:47;;;;;;;10.82;8.15;;;;;;;5.79;69.03;104288.09;4899148;29;20016;-90
2022/03/19 00:59:12;;;;;;;;;;;;;;;5.81;66.60;104294.19;4877138;29;20037;-90
2022/03/19 01:01:37;;;;;;;12.73;8.00;;;;;;;5.76;69.06;104295.69;4876563;29;19939;-91
2022/03/19 01:04:03;;;;;;;11.90;8.20;;;;;;;5.72;69.45;104293.75;4896524;29;20093;-91
2022/03/19 01:06:29;;;;;;;19.23;8.98;;;;;;;5.70;69.38;104290.19;4881944;29;20048;-91
2022/03/19 01:08:55;;;;;;;13.80;8.85;;;;;;;5.70;69.47;104290.19;4885620;29;20037;-93
2022/03/19 01:11:23;;;;;;;14.48;9.13;;;;;;;5.67;69.54;104297.78;4879097;29;20111;-93
2022/03/19 01:13:58;;;;;;;15.10;9.35;;;;;;;5.67;69.43;104290.03;4877673;29;20807;-94
2022/03/19 01:16:25;;;;;;;14.52;8.57;;;;;;;5.66;69.91;104288.25;4888360;29;20488;-92
2022/03/19 01:18:51;;;;;;;12.80;8.88;;;;;;;5.65;70.50;104289.97;4873644;29;20033;-93
2022/03/19 01:21:17;;;;;;;18.52;9.32;;;;;;;5.64;69.99;104276.97;4875273;29;20029;-93
2022/03/19 01:23:42;;;;;;;14.50;9.05;;;;;;;5.62;70.07;104277.78;4872773;29;20037;-94
2022/03/19 01:26:09;;;;;;;15.25;9.82;;;;;;;5.62;70.70;104280.38;4873377;29;20024;-93
2022/03/19 01:28:35;;;;;;;13.88;10.13;;;;;;;5.60;70.62;104288.84;4876421;29;20036;-93
2022/03/19 01:31:00;;;;;;;14.50;9.77;;;;;;;5.58;70.55;104283.59;4877017;29;20028;-92
2022/03/19 01:33:27;;;;;;;17.70;10.63;;;;;;;5.57;70.62;104287.00;4884453;29;20051;-92
2022/03/19 01:35:52;;;;;;;16.98;10.45;;;;;;;5.56;70.84;104286.91;4891495;29;20040;-92
2022/03/19 01:38:17;;;;;;;15.48;9.93;;;;;;;5.54;70.47;104284.25;4888502;29;20025;-93
2022/03/19 01:40:43;;;;;;;16.42;10.32;;;;;;;5.51;70.90;104289.25;4892675;29;20032;-92
2022/03/19 01:43:08;;;;;;;20.00;10.65;;;;;;;5.51;71.08;104289.25;4890676;29;20029;-92
2022/03/19 01:45:33;;;;;;;16.50;10.20;;;;;;;5.49;70.92;104284.81;4895496;29;20028;-92
2022/03/19 01:47:59;;;;;;;16.42;10.35;;;;;;;5.46;71.60;104280.41;4889038;29;20025;-93
2022/03/19 01:50:26;;;;;;;16.98;10.50;;;;;;;5.43;71.29;104286.28;4892663;29;20522;-92
2022/03/19 01:52:53;;;;;;;15.15;10.40;;;;;;;5.42;71.65;104283.63;4873461;29;20093;-92
2022/03/19 01:55:23;;;;;;;16.25;10.23;;;;;;;5.39;71.60;104283.47;4889149;29;20033;-93
2022/03/19 01:57:50;;;;;;;18.85;10.90;;;;;;;5.37;71.68;104287.66;4890331;29;20036;-92
2022/03/19 02:00:18;;;;;;;16.80;10.40;;;;;;;5.35;72.27;104281.53;4892560;29;20089;-92
2022/03/19 02:02:45;;;;;;;16.38;10.48;;;;;;;5.31;72.18;104277.91;4888306;29;20031;-92
2022/03/19 02:05:14;;;;;;;15.05;9.82;;;;;;;5.28;72.29;104273.47;4894312;29;20037;-93
2022/03/19 02:07:40;;;;;;;19.27;10.85;;;;;;;5.25;72.35;104264.66;4873609;29;20123;-92
2022/03/19 02:10:06;;;;;;;18.25;10.75;;;;;;;5.24;72.39;104271.53;4891522;29;20107;-93
2022/03/19 02:12:35;;;;;;;19.40;10.63;;;;;;;5.21;72.26;104263.63;4886859;29;20115;-92
2022/03/19 02:15:01;;;;;;;16.15;10.30;;;;;;;5.18;72.77;104266.03;4890470;29;20032;-93
2022/03/19 02:17:26;;;;;;;15.18;10.07;;;;;;;5.15;72.79;104260.72;4891369;29;20386;-92
2022/03/19 02:19:54;;;;;;;15.48;9.80;;;;;;;5.12;72.59;104258.00;4873471;29;20052;-92
2022/03/19 02:22:21;;;;;;;16.65;10.07;;;;;;;5.09;73.07;104258.72;4889416;29;20033;-92
2022/03/19 02:27:32;;;;;;;15.27;10.10;;;;;;;5.07;73.18;104247.41;4889157;29;20445;-92
2022/03/19 02:29:58;;;;;;;13.68;8.95;;;;;;;5.04;73.13;104244.66;4890309;29;20115;-92
2022/03/19 02:32:24;;;;;;;16.20;9.07;;;;;;;5.01;73.00;104247.13;4871589;29;20078;-92
2022/03/19 02:34:54;;;;;;;14.85;9.75;;;;;;;4.98;73.26;104242.66;4872817;29;20048;-93
2022/03/19 02:37:19;;;;;;;16.55;10.07;;;;;;;4.96;73.51;104239.09;4873780;29;20500;-92
2022/03/19 02:39:45;;;;;;;17.70;9.38;;;;;;;4.95;73.25;104234.75;4874353;29;20033;-93
2022/03/19 02:42:10;;;;;;;17.55;10.80;;;;;;;4.92;73.33;104229.44;4874260;29;20547;-92
2022/03/19 02:44:36;;;;;;;14.82;9.55;;;;;;;4.90;74.04;104236.22;4874974;29;20039;-94
2022/03/19 02:47:07;;;;;;;14.82;9.75;;;;;;;4.88;74.01;104234.34;4874782;29;20032;-93
2022/03/19 02:49:33;;;;;;;14.70;9.35;;;;;;;4.85;73.98;104228.25;4872288;29;20053;-93
2022/03/19 02:51:58;;;;;;;16.70;9.00;;;;;;;4.85;74.26;104232.50;4894435;29;20088;-93
2022/03/19 02:54:26;;;;;;;14.77;9.35;;;;;;;4.84;74.29;104230.72;4897811;29;20023;-94
2022/03/19 02:56:53;;;;;;;15.00;9.32;;;;;;;4.83;74.18;104231.53;4896136;29;20116;-93
2022/03/19 02:59:21;;;;;;;15.27;8.98;;;;;;;4.80;74.47;104234.84;4875779;29;20564;-92
2022/03/19 03:01:49;;;;;;;13.80;8.90;;;;;;;4.78;74.73;104236.44;4872814;29;20112;-93
2022/03/19 03:04:14;;;;;;;15.38;9.43;;;;;;;4.76;75.19;104232.03;4872436;29;20504;-93
2022/03/19 03:06:42;;;;;;;15.27;9.70;;;;;;;4.77;74.75;104233.81;4870527;29;20025;-94
2022/03/19 03:09:10;;;;;;;16.25;9.27;;;;;;;4.77;74.75;104236.38;4872797;29;20025;-94
2022/03/19 03:11:36;;;;;;;16.48;9.32;;;;;;;4.75;75.16;104218.22;4869803;29;20485;-93
2022/03/19 03:14:03;;;;;;;16.60;9.30;;;;;;;4.74;75.43;104228.47;4873040;29;20480;-92
2022/03/19 03:16:32;;;;;;;15.13;9.30;;;;;;;4.71;75.42;104218.84;4873232;29;20180;-93
2022/03/19 03:19:00;;;;;;;14.70;8.75;;;;;;;4.70;75.33;104222.25;4856766;29;20037;-92
2022/03/19 03:21:27;;;;;;;13.88;9.15;;;;;;;4.68;75.31;104219.59;4878308;29;20024;-93
2022/03/19 03:23:53;;;;;;;16.05;8.70;;;;;;;4.67;75.56;104212.66;4873236;29;20384;-92
2022/03/19 03:26:18;;;;;;;14.18;8.80;;;;;;;4.66;75.29;104216.03;4874199;29;20033;-93
2022/03/19 03:28:45;;;;;;;18.45;9.25;;;;;;;4.67;75.87;104216.94;4891093;29;20559;-92
2022/03/19 03:31:11;;;;;;;16.58;9.70;;;;;;;4.66;75.58;104223.78;4877503;29;20077;-91
2022/03/19 03:33:36;;;;;;;16.38;8.82;;;;;;;4.65;75.68;104218.56;4882475;29;20048;-93
2022/03/19 03:36:02;;;;;;;15.73;8.30;;;;;;;4.64;75.58;104212.50;4889704;29;20091;-93
2022/03/19 03:38:27;;;;;;;19.02;8.77;;;;;;;4.61;75.84;104217.47;4893448;29;20036;-92
2022/03/19 03:40:53;;;;;;;16.80;8.98;;;;;;;4.57;76.29;104215.56;4889440;29;20119;-93
2022/03/19 03:43:18;;;;;;;19.60;9.10;;;;;;;4.55;76.22;104219.75;4905648;29;20040;-93
2022/03/19 03:45:44;;;;;;;15.85;8.65;;;;;;;4.54;76.22;104212.81;4893317;29;20421;-92
2022/03/19 03:48:09;;;;;;;16.33;8.45;;;;;;;4.52;76.13;104211.84;4891309;29;20032;-92
2022/03/19 03:50:36;;;;;;;17.38;8.85;;;;;;;4.52;76.42;104211.84;4897234;29;20028;-91
2022/03/19 03:53:05;;;;;;;15.55;8.45;;;;;;;4.49;76.29;104206.50;4897149;29;20040;-92
2022/03/19 03:55:32;;;;;;;14.98;8.35;;;;;;;4.48;76.09;104203.06;4891899;29;20044;-92
2022/03/19 03:57:59;;;;;;;15.77;8.95;;;;;;;4.47;76.63;104202.94;4896504;29;20139;-92
2022/03/19 04:00:27;;;;;;;16.67;8.80;;;;;;;4.44;76.52;104195.94;4893066;29;20025;-92
2022/03/19 04:02:52;;;;;;;14.57;8.27;;;;;;;4.43;76.05;104203.63;4909894;29;20025;-92
2022/03/19 04:05:18;;;;;;;17.57;8.23;;;;;;;4.42;76.44;104194.09;4908558;29;20025;-92
2022/03/19 04:07:43;;;;;;;16.40;8.10;;;;;;;4.40;76.14;104200.06;4895241;29;20033;-91
2022/03/19 04:10:08;;;;;;;15.40;7.88;;;;;;;4.38;76.02;104191.34;4893488;29;20025;-92
2022/03/19 04:12:35;;;;;;;13.25;7.85;;;;;;;4.37;76.86;104202.47;4898115;29;20111;-93
2022/03/19 04:15:00;;;;;;;13.55;7.75;;;;;;;4.35;76.51;104198.03;4895200;29;20081;-93
2022/03/19 04:17:26;;;;;;;13.00;8.00;;;;;;;4.35;76.28;104200.63;4894490;29;20028;-93
2022/03/19 04:19:51;;;;;;;16.38;8.32;;;;;;;4.30;76.46;104200.34;4895661;29;20040;-92
2022/03/19 04:22:16;;;;;;;16.65;8.57;;;;;;;4.29;76.84;104198.56;4893496;29;20028;-93
2022/03/19 04:24:42;;;;;;;15.82;9.00;;;;;;;4.28;76.50;104191.63;4892323;29;20470;-92
2022/03/19 04:27:09;;;;;;;14.43;8.37;;;;;;;4.26;76.61;104195.84;4896582;29;20024;-91
2022/03/19 04:29:35;;;;;;;15.70;8.27;;;;;;;4.23;76.78;104200.84;4893263;29;20476;-93
2022/03/19 04:32:00;;;;;;;14.13;7.95;;;;;;;4.22;76.50;104187.03;4905176;29;20088;-93
2022/03/19 04:34:25;;;;;;;12.68;7.88;;;;;;;4.20;76.93;104193.78;4891563;29;20504;-92
2022/03/19 04:36:51;;;;;;;17.27;8.55;;;;;;;4.20;77.16;104190.34;4910569;29;20044;-92
2022/03/19 04:39:17;;;;;;;11.40;8.00;;;;;;;4.18;77.30;104190.28;4893021;29;20021;-92
2022/03/19 04:41:42;;;;;;;15.88;8.57;;;;;;;4.17;77.28;104183.34;4896499;29;20392;-91
2022/03/19 04:44:08;;;;;;;16.58;8.48;;;;;;;4.14;77.21;104180.59;4889682;29;20028;-94
2022/03/19 04:46:35;;;;;;;15.20;7.63;;;;;;;4.13;77.14;104185.63;4895121;29;20052;-93
2022/03/19 04:49:00;;;;;;;13.45;8.15;;;;;;;4.10;77.67;104187.25;4891412;29;20124;-93
2022/03/19 04:51:32;;;;;;;15.13;8.33;;;;;;;4.07;77.59;104181.94;4892898;29;20064;-93
2022/03/19 04:53:58;;;;;;;15.23;8.30;;;;;;;4.08;77.15;104187.97;4896271;29;20029;-92
2022/03/19 04:56:25;;;;;;;15.63;8.67;;;;;;;4.06;77.63;104176.69;4893983;29;20035;-93
2022/03/19 04:58:52;;;;;;;16.27;8.43;;;;;;;4.05;77.51;104183.56;4896655;29;20505;-93
2022/03/19 05:01:18;;;;;;;14.97;8.63;;;;;;;4.03;77.75;104177.41;4890719;29;20025;-92
2022/03/19 05:03:44;;;;;;;16.30;8.77;;;;;;;4.01;77.75;104183.31;4892756;29;20029;-93
2022/03/19 05:06:09;;;;;;;14.93;8.90;;;;;;;4.00;77.55;104187.53;4894135;29;20024;-93
2022/03/19 05:08:35;;;;;;;17.43;9.13;;;;;;;4.00;77.49;104177.25;4891983;29;20084;-91
2022/03/19 05:11:13;;;;;;;15.00;8.50;;;;;;;3.98;77.62;104186.56;4893870;29;20398;-92
2022/03/19 05:13:40;;;;;;;16.48;8.52;;;;;;;3.97;77.69;104189.06;4895834;29;20087;-93
2022/03/19 05:16:06;;;;;;;16.80;8.40;;;;;;;3.96;77.65;104188.16;4894458;29;20020;-93
2022/03/19 05:18:31;;;;;;;15.57;8.70;;;;;;;3.95;77.61;104196.69;4893309;29;20503;-92
2022/03/19 05:20:56;;;;;;;16.63;8.87;;;;;;;3.95;77.68;104188.97;4889800;29;20032;-93
2022/03/19 05:23:23;;;;;;;16.95;9.43;;;;;;;3.92;78.16;104189.69;4894146;29;20032;-91
2022/03/19 05:25:48;;;;;;;18.37;9.40;;;;;;;3.90;78.06;104185.28;4892713;29;20029;-92
2022/03/19 05:28:13;;;;;;;15.13;8.93;;;;;;;3.92;78.05;104196.56;4891248;29;20051;-91
2022/03/19 05:30:39;;;;;;;16.33;8.80;;;;;;;3.91;77.25;104194.78;4891314;29;20025;-93
2022/03/19 05:33:04;;;;;;;16.23;8.83;;;;;;;3.89;77.79;104191.22;4889891;29;20090;-94
2022/03/19 05:35:31;;;;;;;17.13;8.83;;;;;;;3.88;78.02;104197.16;4874819;29;20025;-93
2022/03/19 05:37:59;;;;;;;16.80;8.70;;;;;;;3.86;77.51;104197.06;4894514;29;20028;-93
2022/03/19 05:40:25;;;;;;;15.77;8.77;;;;;;;3.86;77.76;104198.78;4869327;29;20109;-93
2022/03/19 05:42:50;;;;;;;16.77;8.93;;;;;;;3.85;78.01;104204.72;4860846;29;20029;-92
2022/03/19 05:45:19;;;;;;;19.50;9.80;;;;;;;3.83;77.77;104207.22;4872855;29;20402;-92
2022/03/19 05:47:48;;;;;;;17.67;8.50;;;;;;;3.82;78.06;104205.44;4860836;29;20558;-91
2022/03/19 05:50:15;;;;;;;14.77;8.50;;;;;;;3.81;77.83;104206.25;4893015;29;20024;-92
2022/03/19 05:52:41;;;;;;;14.70;8.80;;;;;;;3.79;78.06;104211.28;4873311;29;20037;-93
2022/03/19 05:55:08;;;;;;;14.90;8.80;;;;;;;3.77;77.75;104201.72;4874617;29;20039;-93
2022/03/19 05:57:34;;;;;;;15.30;8.63;;;;;;;3.78;78.11;104218.94;4875743;29;20027;-93
2022/03/19 05:59:59;;;;;;;16.73;9.33;;;;;;;3.78;78.17;104219.81;4871109;29;20033;-93
2022/03/19 06:02:25;;;;;;;15.90;9.03;;;;;;;3.76;78.02;104213.69;4873705;29;20035;-92
2022/03/19 06:04:51;;;;;;;18.40;9.00;;;;;;;3.76;78.11;104215.38;4875568;29;20198;-92
2022/03/19 06:07:16;;;;;;;19.47;9.20;;;;;;;3.78;77.75;104219.81;4879357;29;20029;-92
2022/03/19 06:09:41;;;;;;;13.60;8.33;;;;;;;3.79;78.03;104221.59;4873607;29;20079;-91
2022/03/19 06:12:07;;;;;;;16.83;9.17;;;;;;;3.80;78.06;104217.34;4873939;29;20025;-92
2022/03/19 06:14:33;;;;;;;13.90;8.90;;;;;;;3.80;78.32;104209.63;4874907;29;20029;-92
2022/03/19 06:16:59;;;;;;;17.33;8.87;;;;;;;3.83;78.06;104211.47;4871140;29;20378;-92
2022/03/19 06:19:25;;;;;;;15.87;9.13;;;;;;;3.84;78.36;104213.25;4872519;29;20101;-93
2022/03/19 06:21:51;;;;;;;14.67;8.63;;;;;;;3.86;78.04;104212.53;4871900;29;20095;-94
2022/03/19 06:24:17;;;;;;;16.17;9.27;;;;;;;3.89;77.99;104216.97;4870329;29;20127;-93
2022/03/19 06:26:43;;;;;;;16.97;8.67;;;;;;;3.90;78.20;104209.31;4878295;29;20304;-94
2022/03/19 06:29:08;;;;;;;18.10;8.47;;;;;;;3.95;78.01;104217.31;4900035;29;20043;-94
2022/03/19 06:31:34;;;;;;;15.90;9.77;;;;;;;3.97;78.46;104215.72;4899550;29;20013;-93
2022/03/19 06:33:59;;;;;;;16.17;9.27;;;;;;;4.00;78.20;104213.31;4894462;29;20040;-92
2022/03/19 06:39:09;;;;;;;18.57;9.27;;;;;;;4.09;78.30;104216.41;4914954;29;20066;-93
2022/03/19 06:41:34;;;;;;;18.37;9.23;;;;;;;4.10;78.71;104215.59;4894446;29;20021;-93
2022/03/19 06:44:00;;;;;;;18.53;9.17;;;;;;;4.17;78.35;104218.53;4900545;29;20016;-94
2022/03/19 06:46:26;;;;;;;18.00;9.37;;;;;;;4.20;78.59;104223.84;4912517;29;20020;-93
2022/03/19 06:48:52;;;;;;;19.27;9.30;;;;;;;4.24;78.70;104223.22;4899831;29;20024;-92
2022/03/19 06:51:18;;;;;;;18.80;9.67;;;;;;;4.30;78.71;104210.66;4894446;29;20084;-93
2022/03/19 06:53:44;;;;;;;17.03;9.43;;;;;;;4.34;78.46;104207.44;4898634;29;20126;-92
2022/03/19 06:56:13;;;;;;;16.97;9.33;;;;;;;4.40;78.25;104202.63;4883753;29;20036;-93
2022/03/19 06:58:39;;;;;;;16.25;9.43;;;;;;;4.46;78.28;104208.91;4898238;29;20017;-93
2022/03/19 07:01:05;;;;;;;17.10;9.77;;;;;;;4.51;78.13;104202.31;4900109;29;20028;-93
2022/03/19 07:03:31;;;;;;;19.20;10.10;;;;;;;4.56;77.97;104206.03;4899795;29;20021;-92
2022/03/19 07:05:57;;;;;;;17.98;9.20;;;;;;;4.62;78.45;104202.91;4900476;29;20009;-92
2022/03/19 07:08:22;;;;;;;16.67;9.38;;;;;;;4.70;78.08;104196.44;4901493;29;20088;-93
2022/03/19 07:10:48;;;;;;;15.38;9.45;;;;;;;4.81;78.43;104197.03;4883686;29;20080;-94
2022/03/19 07:13:14;;;;;;;17.03;8.90;;;;;;;4.94;78.71;104201.13;4901860;29;20076;-93
2022/03/19 07:15:40;;;;;;;17.73;9.38;;;;;;;4.98;77.82;104195.34;4885540;29;20020;-94
2022/03/19 07:18:05;;;;;;;18.02;9.45;;;;;;;4.99;77.77;104200.56;4892970;29;20037;-93
2022/03/19 07:20:31;;;;;;;16.40;9.18;;;;;;;5.01;77.91;104198.94;4876615;29;20450;-92
2022/03/19 07:23:07;;;;;;;15.27;9.35;;;;;;;5.07;77.65;104200.09;4874780;29;20033;-92
2022/03/19 07:25:35;;;;;;;18.42;9.18;;;;;;;5.11;77.74;104207.19;4876766;29;20052;-92
2022/03/19 07:28:04;;;;;;;18.23;9.88;;;;;;;5.16;77.83;104197.97;4889642;29;20030;-93
2022/03/19 07:30:30;;;;;;;17.27;9.10;;;;;;;5.23;78.35;104205.22;4876919;29;20031;-92
2022/03/19 07:32:55;;;;;;;19.60;9.52;;;;;;;5.29;77.70;104199.47;4894889;29;20044;-91
2022/03/19 07:35:21;;;;;;;17.55;9.52;;;;;;;5.36;77.57;104205.84;4893890;29;20048;-92
2022/03/19 07:37:47;;;;;;;15.68;8.80;;;;;;;5.41;78.12;104200.09;4881413;29;20028;-92
2022/03/19 07:40:15;;;;;;;17.20;8.98;;;;;;;5.48;77.36;104201.28;4877613;29;20506;-91
2022/03/19 07:42:42;;;;;;;13.20;8.80;;;;;;;5.54;76.99;104188.69;4875426;29;20037;-92
2022/03/19 07:45:08;;;;;;;18.15;9.35;;;;;;;5.60;77.14;104193.25;4876308;29;20447;-92
2022/03/19 07:47:35;;;;;;;16.35;8.40;;;;;;;5.68;76.74;104194.53;4875588;29;20031;-92
2022/03/19 07:50:02;;;;;;;15.02;8.73;;;;;;;5.72;76.23;104191.28;4877007;29;20068;-92
2022/03/19 07:52:27;;;;;;;15.90;8.70;;;;;;;5.79;76.27;104192.50;4898349;29;20047;-92
2022/03/19 07:54:54;;;;;;;12.95;7.85;;;;;;;5.87;75.24;104185.97;4875976;29;20043;-93
2022/03/19 07:57:21;;;;;;;15.90;8.52;;;;;;;5.92;75.42;104192.25;4875074;29;20029;-92
2022/03/19 07:59:46;;;;;;;19.52;7.18;;;;;;;5.98;74.89;104183.03;4895861;29;20036;-92
2022/03/19 08:02:11;;;;;;;15.00;8.10;;;;;;;6.05;74.84;104190.28;4875307;29;20033;-92
2022/03/19 08:04:38;;;;;;;16.65;8.05;;;;;;;6.11;74.85;104190.59;4875089;29;20029;-93
2022/03/19 08:07:03;;;;;;;10.75;6.82;;;;;;;6.15;73.72;104184.72;4873891;29;20366;-92
2022/03/19 08:09:29;;;;;;;13.43;7.15;;;;;;;6.20;73.82;104188.41;4879184;29;20100;-93
2022/03/19 08:11:55;;;;;;;13.70;6.75;;;;;;;6.27;73.62;104194.75;4878292;29;20456;-93
2022/03/19 08:14:21;;;;;;;13.93;6.68;;;;;;;6.32;72.88;104201.03;4878356;29;20547;-93
2022/03/19 08:16:49;;;;;;;11.80;6.57;;;;;;;6.37;72.69;104196.06;4878122;29;20092;-92
2022/03/19 08:19:19;;;;;;;14.35;6.88;;;;;;;6.39;72.17;104199.63;4877278;29;20024;-93
2022/03/19 08:21:49;;;;;;;14.40;6.85;;;;;;;6.44;72.62;104185.19;4877421;29;20033;-95
2022/03/19 08:24:14;;;;;;;14.50;7.20;;;;;;;6.48;71.88;104200.06;4879103;29;20028;-93
2022/03/19 08:26:40;;;;;;;15.13;7.00;;;;;;;6.51;71.33;104192.41;4861621;29;20108;-93
2022/03/19 08:29:06;;;;;;;17.00;6.43;;;;;;;6.55;71.57;104197.72;4876861;29;20095;-93
2022/03/19 08:31:32;;;;;;;12.75;6.60;;;;;;;6.57;71.52;104186.66;4878415;29;20029;-91
2022/03/19 08:33:57;;;;;;;16.25;6.82;;;;;;;6.62;71.19;104194.63;4892242;29;20056;-88
2022/03/19 08:36:23;;;;;;;13.65;6.28;;;;;;;6.65;71.12;104194.75;4891553;29;20044;-92
2022/03/19 08:41:34;;;;;;;12.80;6.57;;;;;;;6.71;71.00;104200.19;4894107;29;20047;-92
2022/03/19 08:43:59;;;;;;;10.85;6.22;;;;;;;6.77;70.85;104197.88;4873305;29;20037;-92
2022/03/19 08:46:25;;;;;;;12.10;6.22;;;;;;;6.81;70.46;104197.22;4894286;29;20074;-91
2022/03/19 08:48:51;;;;;;;12.43;6.55;;;;;;;6.87;70.88;104190.50;4916387;29;20028;-92
2022/03/19 08:54:00;;;;;;;14.30;6.43;;;;;;;6.95;70.27;104190.03;4917172;29;20121;-91
2022/03/19 08:56:26;;;;;;;14.65;6.55;;;;;;;7.01;70.31;104188.53;4898947;29;20012;-90
2022/03/19 08:58:51;;;;;;;12.23;6.72;;;;;;;7.06;69.29;104192.22;4903487;29;20030;-92
2022/03/19 09:01:17;;;;;;;14.10;6.13;;;;;;;7.08;69.59;104190.59;4886054;29;20223;-89
2022/03/19 09:03:43;;;;;;;14.90;6.50;;;;;;;7.11;70.79;104185.50;4892289;29;20029;-89
2022/03/19 09:06:13;;;;;;;10.93;5.95;;;;;;;7.17;70.64;104179.75;4893427;29;20021;-89
2022/03/19 09:08:38;;;;;;;13.57;6.57;;;;;;;7.22;70.35;104183.38;4886069;29;20036;-89
2022/03/19 09:11:03;;;;;;;13.70;6.68;;;;;;;7.29;69.28;104183.72;4915917;29;20055;-89
2022/03/19 09:13:28;;;;;;;9.38;5.55;;;;;;;7.34;69.13;104177.84;4897518;29;20024;-91
2022/03/19 09:15:54;;;;;;;13.45;5.90;;;;;;;7.37;67.75;104176.25;4909057;29;20139;-92
2022/03/19 09:18:20;;;;;;;12.07;5.80;;;;;;;7.40;68.60;104171.22;4878270;29;20097;-90
2022/03/19 09:20:45;;;;;;;11.80;5.90;;;;;;;7.47;69.40;104168.88;4876061;29;20059;-92
2022/03/19 09:23:10;;;;;;;12.40;5.20;;;;;;;7.55;67.13;104172.66;4878044;29;20060;-91
2022/03/19 09:25:36;;;;;;;15.65;5.40;;;;;;;7.58;67.60;104173.69;4878641;29;20033;-91
2022/03/19 09:28:01;;;;;;;9.82;4.97;;;;;;;7.64;67.63;104172.16;4877822;29;20034;-92
2022/03/19 09:30:26;;;;;;;16.30;5.93;;;;;;;7.67;66.46;104165.41;4898368;29;20064;-89
2022/03/19 09:32:56;;;;;;;11.13;5.57;;;;;;;7.74;66.66;104167.41;4894731;29;20056;-91
2022/03/19 09:35:22;;;;;;;9.90;4.97;;;;;;;7.81;66.60;104167.66;4874601;29;20028;-91
2022/03/19 09:37:47;;;;;;;13.18;5.13;;;;;;;7.87;65.30;104161.00;4874679;29;20032;-90
2022/03/19 09:40:13;;;;;;;10.50;4.97;;;;;;;7.92;64.75;104153.38;4875117;29;20082;-89
2022/03/19 09:42:49;;;;;;;11.98;5.22;;;;;;;7.96;65.20;104155.28;4894498;24;20056;-91
2022/03/19 09:45:22;;;;;;;10.50;4.47;;;;;;;8.00;65.12;104157.19;4892570;29;20423;-90
2022/03/19 09:47:49;;;;;;;10.70;4.63;;;;;;;8.05;63.67;104150.44;4897993;29;20041;-90
2022/03/19 09:50:15;;;;;;;10.38;4.60;;;;;;;8.11;63.70;104146.31;4900881;29;20514;-89
2022/03/19 09:52:42;;;;;;;8.70;4.18;;;;;;;8.17;62.77;104144.84;4899544;29;20040;-89
2022/03/19 09:55:13;;;;;;;10.10;4.28;;;;;;;8.22;62.41;104138.94;4897753;29;20369;-89
2022/03/19 09:57:38;;;;;;;10.00;4.28;;;;;;;8.26;62.41;104139.13;4898970;29;20036;-90
2022/03/19 10:00:06;;;;;;;13.80;4.38;;;;;;;8.33;62.08;104140.22;4897732;29;20039;-94
2022/03/19 10:02:31;;;;;;;9.45;4.50;;;;;;;8.37;61.68;104126.53;4898763;29;20028;-94
2022/03/19 10:04:57;;;;;;;12.40;4.43;;;;;;;8.44;61.23;104132.84;4898800;29;20072;-92
2022/03/19 10:10:09;;;;;;;11.63;4.03;;;;;;;8.58;58.96;104116.09;4893706;29;20076;-93
2022/03/19 10:12:36;;;;;;;7.53;4.07;;;;;;;8.61;59.25;104108.41;4892073;29;20163;-92
2022/03/19 10:15:09;;;;;;;8.95;3.90;;;;;;;8.67;59.10;104101.69;4896162;29;20058;-92
2022/03/19 10:17:36;;;;;;;9.57;3.80;;;;;;;8.73;58.01;104100.19;4896531;29;20088;-90
2022/03/19 10:20:12;;;;;;;8.93;4.18;;;;;;;8.76;59.10;104096.78;4899277;29;20039;-92
2022/03/19 10:22:42;;;;;;;7.10;3.65;;;;;;;8.80;56.59;104093.47;4897164;29;20042;-91
2022/03/19 10:25:10;;;;;;;11.35;3.50;;;;;;;8.85;56.08;104086.75;4895590;29;20068;-91
2022/03/19 10:27:41;;;;;;;7.32;3.38;;;;;;;8.89;55.76;104088.59;4897654;29;20040;-91
2022/03/19 10:30:19;;;;;;;9.45;3.30;;;;;;;8.94;55.80;104079.25;4898169;29;20048;-92
2022/03/19 10:32:54;;;;;;;10.82;3.58;;;;;;;9.01;56.88;104077.72;4891953;29;20028;-91
2022/03/19 10:35:31;;;;;;;5.57;2.80;;;;;;;9.06;55.64;104077.88;4895550;29;20027;-89
2022/03/19 10:37:58;;;;;;;9.00;3.03;;;;;;;9.11;54.41;104078.91;4892734;29;20032;-93
2022/03/19 10:40:41;;;;;;;8.15;3.45;;;;;;;9.16;55.71;104064.38;4895915;29;20043;-92
2022/03/19 10:43:08;;;;;;;6.65;3.13;;;;;;;9.21;52.41;104061.91;4897184;29;20866;-90
2022/03/19 10:45:42;;;;;;;5.85;2.00;;;;;;;9.30;48.36;104058.72;4895054;29;20054;-92
2022/03/19 10:48:09;;;;;;;5.80;2.08;;;;;;;9.34;44.06;104052.81;4898236;29;20036;-91
2022/03/19 10:50:39;;;;;;;6.43;2.10;;;;;;;9.42;43.69;104056.50;4897421;29;20115;-92
2022/03/19 10:53:05;;;;;;;5.57;1.83;;;;;;;9.47;42.15;104049.75;4894869;29;20047;-93
2022/03/19 10:55:30;;;;;;;5.25;2.03;;;;;;;9.52;41.66;104053.38;4899803;29;20032;-92
2022/03/19 10:57:55;;;;;;;9.63;1.90;;;;;;;9.58;39.80;104044.88;4896442;29;20460;-90
2022/03/19 11:00:22;;;;;;;6.65;1.83;;;;;;;9.65;40.28;104044.22;4897449;29;20039;-94
2022/03/19 11:02:49;;;;;;;3.38;1.90;;;;;;;9.69;41.27;104030.47;4892935;29;20033;-93
2022/03/19 11:05:19;;;;;;;4.30;2.28;;;;;;;9.76;39.93;104034.13;4893763;29;20037;-91
2022/03/19 11:07:46;;;;;;;7.10;1.90;;;;;;;9.83;41.29;104032.59;4894058;29;20028;-91
2022/03/19 11:10:12;;;;;;;5.55;1.88;;;;;;;9.87;40.93;104022.34;4891633;29;20064;-91
2022/03/19 11:12:42;;;;;;;3.55;1.42;;;;;;;9.92;40.15;104016.38;4893629;29;20021;-91
2022/03/19 11:15:09;;;;;;;8.05;1.90;;;;;;;9.97;40.99;104020.88;4893947;29;20036;-93
2022/03/19 11:17:38;;;;;;;6.18;2.33;;;;;;;10.06;43.65;104017.66;4894647;29;20130;-90
2022/03/19 11:20:06;;;;;;;5.82;2.55;;;;;;;10.09;43.29;104020.31;4889553;29;20542;-90
2022/03/19 11:22:39;;;;;;;9.77;2.70;;;;;;;10.12;45.00;104010.00;4899114;29;20143;-90
2022/03/19 11:25:31;;;;;;;9.48;2.60;;;;;;;10.18;45.71;104004.97;4896483;29;20169;-91
2022/03/19 11:28:07;;;;;;;5.97;2.45;;;;;;;10.21;42.52;104005.91;4898878;29;20090;-91
2022/03/19 11:30:34;;;;;;;6.22;2.75;;;;;;;10.23;42.66;103989.47;4902845;29;20452;-91
2022/03/19 11:33:00;;;;;;;6.57;2.15;;;;;;;10.28;43.43;103989.59;4897455;29;20499;-91
2022/03/19 11:35:26;;;;;;;7.70;2.50;;;;;;;10.30;41.83;103986.22;4901887;29;20036;-91
2022/03/19 11:38:13;;;;;;;5.93;2.55;;;;;;;10.36;42.89;103980.28;4900242;29;20063;-89